createdAt,value
2018-12-20T00:01:26.232Z,21.07
2018-12-20T00:03:54.858Z,19.60
2018-12-20T00:06:23.448Z,19.20
2018-12-20T00:08:51.876Z,21.48
2018-12-20T00:11:20.224Z,22.52
2018-12-20T00:13:48.555Z,21.55
2018-12-20T00:16:17.086Z,23.10
2018-12-20T00:18:45.588Z,21.85
2018-12-20T00:21:14.020Z,22.30
2018-12-20T00:23:43.308Z,23.87
2018-12-20T00:26:11.739Z,26.77
2018-12-20T00:28:40.307Z,23.62
2018-12-20T00:31:13.598Z,26.05
2018-12-20T00:33:39.067Z,21.12
2018-12-20T00:36:07.525Z,25.65
2018-12-20T00:38:36.001Z,23.57
2018-12-20T00:41:04.438Z,34.18
2018-12-20T00:43:32.903Z,23.30
2018-12-20T00:46:01.311Z,27.45
2018-12-20T00:48:29.763Z,24.37
2018-12-20T00:50:58.190Z,21.80
2018-12-20T00:53:26.626Z,25.25
2018-12-20T00:55:55.175Z,26.02
2018-12-20T00:58:23.590Z,23.27
2018-12-20T01:00:52.085Z,23.85
2018-12-20T01:03:20.585Z,22.30
2018-12-20T01:05:48.926Z,21.73
2018-12-20T01:08:17.353Z,25.37
2018-12-20T01:10:46.194Z,23.47
2018-12-20T01:13:14.668Z,20.70
2018-12-20T01:15:43.709Z,21.80
2018-12-20T01:18:12.245Z,24.23
2018-12-20T01:20:40.796Z,22.87
2018-12-20T01:23:09.285Z,25.27
2018-12-20T01:25:37.814Z,22.98
2018-12-20T01:28:06.359Z,21.65
2018-12-20T01:30:34.818Z,25.43
2018-12-20T01:33:03.385Z,20.82
2018-12-20T01:35:32.429Z,23.38
2018-12-20T01:38:00.936Z,22.35
2018-12-20T01:40:29.320Z,23.50
2018-12-20T01:42:57.965Z,24.35
2018-12-20T01:45:26.753Z,26.68
2018-12-20T01:47:55.203Z,22.85
2018-12-20T01:50:23.748Z,24.43
2018-12-20T01:52:52.664Z,23.62
2018-12-20T01:55:21.047Z,24.27
2018-12-20T01:57:49.408Z,25.02
2018-12-20T02:00:17.899Z,22.13
2018-12-20T02:02:46.318Z,22.42
2018-12-20T02:05:15.024Z,22.22
2018-12-20T02:07:43.545Z,23.50
2018-12-20T02:10:12.235Z,27.35
2018-12-20T02:12:40.686Z,25.95
2018-12-20T02:15:09.627Z,25.15
2018-12-20T02:17:38.049Z,23.15
2018-12-20T02:20:06.646Z,25.82
2018-12-20T02:22:35.169Z,25.45
2018-12-20T02:25:03.759Z,21.40
2018-12-20T02:27:32.110Z,24.50
2018-12-20T02:30:00.501Z,23.98
2018-12-20T02:32:29.073Z,24.95
2018-12-20T02:34:57.573Z,23.83
2018-12-20T02:37:26.158Z,22.07
2018-12-20T02:39:54.842Z,23.80
2018-12-20T02:42:23.326Z,26.50
2018-12-20T02:44:51.855Z,23.52
2018-12-20T02:47:22.296Z,28.10
2018-12-20T02:49:50.773Z,21.35
2018-12-20T02:52:19.167Z,26.77
2018-12-20T02:54:47.573Z,27.90
2018-12-20T02:57:16.015Z,27.27
2018-12-20T02:59:44.641Z,22.73
2018-12-20T03:02:13.335Z,24.57
2018-12-20T03:04:41.800Z,22.00
2018-12-20T03:07:10.180Z,24.30
2018-12-20T03:09:38.606Z,24.32
2018-12-20T03:12:07.219Z,22.73
2018-12-20T03:14:35.602Z,21.35
2018-12-20T03:17:04.109Z,18.70
2018-12-20T03:19:32.826Z,21.30
2018-12-20T03:22:01.362Z,20.97
2018-12-20T03:24:29.907Z,22.73
2018-12-20T03:26:58.318Z,19.42
2018-12-20T03:29:26.797Z,23.22
2018-12-20T03:31:55.761Z,21.80
2018-12-20T03:34:24.325Z,20.15
2018-12-20T03:36:53.280Z,21.42
2018-12-20T03:39:21.720Z,19.45
2018-12-20T03:41:50.182Z,18.70
2018-12-20T03:44:18.654Z,24.05
2018-12-20T03:46:47.149Z,20.50
2018-12-20T03:49:15.833Z,18.00
2018-12-20T03:51:45.022Z,23.62
2018-12-20T03:54:13.550Z,18.10
2018-12-20T03:56:41.955Z,19.07
2018-12-20T03:59:10.358Z,24.07
2018-12-20T04:01:38.843Z,21.60
2018-12-20T04:04:07.224Z,26.07
2018-12-20T04:06:35.638Z,25.90
2018-12-20T04:09:07.022Z,23.60
2018-12-20T04:11:35.732Z,23.57
2018-12-20T04:14:04.639Z,26.00
2018-12-20T04:16:33.150Z,25.82
2018-12-20T04:19:01.585Z,24.30
2018-12-20T04:21:29.967Z,25.70
2018-12-20T04:23:58.640Z,23.42
2018-12-20T04:26:27.190Z,19.73
2018-12-20T04:28:55.833Z,22.77
2018-12-20T04:31:24.568Z,23.00
2018-12-20T04:33:53.101Z,23.95
2018-12-20T04:36:21.566Z,21.62
2018-12-20T04:38:50.149Z,20.37
2018-12-20T04:41:18.804Z,24.02
2018-12-20T04:43:47.519Z,19.62
2018-12-20T04:46:16.286Z,21.07
2018-12-20T04:48:44.693Z,24.27
2018-12-20T04:51:13.058Z,21.17
2018-12-20T04:53:41.663Z,20.00
2018-12-20T04:56:10.127Z,20.57
2018-12-20T04:58:38.723Z,22.15
2018-12-20T05:01:07.097Z,21.62
2018-12-20T05:03:36.044Z,28.38
2018-12-20T05:06:04.504Z,20.68
2018-12-20T05:08:32.917Z,19.67
2018-12-20T05:11:02.290Z,19.32
2018-12-20T05:13:30.798Z,17.37
2018-12-20T05:15:59.365Z,16.37
2018-12-20T05:18:27.825Z,17.62
2018-12-20T05:20:56.206Z,20.35
2018-12-20T05:23:24.559Z,24.15
2018-12-20T05:25:53.066Z,15.98
2018-12-20T05:28:21.617Z,16.57
2018-12-20T05:30:50.129Z,19.52
2018-12-20T05:33:18.771Z,15.35
2018-12-20T05:35:47.188Z,16.27
2018-12-20T05:38:15.588Z,16.35
2018-12-20T05:40:43.954Z,18.80
2018-12-20T05:43:12.450Z,17.70
2018-12-20T05:45:41.043Z,16.20
2018-12-20T05:48:09.651Z,17.45
2018-12-20T05:50:38.131Z,15.43
2018-12-20T05:53:06.473Z,15.25
2018-12-20T05:55:34.807Z,14.60
2018-12-20T05:58:03.427Z,17.15
2018-12-20T06:00:31.984Z,14.15
2018-12-20T06:03:00.803Z,15.25
2018-12-20T06:05:29.317Z,15.50
2018-12-20T06:07:57.881Z,14.13
2018-12-20T06:10:26.459Z,15.65
2018-12-20T06:12:55.006Z,16.02
2018-12-20T06:15:23.655Z,15.85
2018-12-20T06:17:52.697Z,17.80
2018-12-20T06:20:21.564Z,14.87
2018-12-20T06:22:50.116Z,16.67
2018-12-20T06:25:21.219Z,22.95
2018-12-20T06:27:49.413Z,15.75
2018-12-20T06:30:18.149Z,15.63
2018-12-20T06:32:47.141Z,15.10
2018-12-20T06:35:15.599Z,16.82
2018-12-20T06:37:44.040Z,17.85
2018-12-20T06:40:12.399Z,17.10
2018-12-20T06:42:40.775Z,17.02
2018-12-20T06:45:09.292Z,21.10
2018-12-20T06:47:37.656Z,19.80
2018-12-20T06:50:10.653Z,18.00
2018-12-20T06:52:39.040Z,19.52
2018-12-20T06:55:08.076Z,14.35
2018-12-20T06:57:36.466Z,14.10
2018-12-20T07:00:06.868Z,14.25
2018-12-20T07:02:35.520Z,12.80
2018-12-20T07:05:04.330Z,15.88
2018-12-20T07:07:32.687Z,14.40
2018-12-20T07:10:01.056Z,15.58
2018-12-20T07:12:29.456Z,16.23
2018-12-20T07:14:57.827Z,15.90
2018-12-20T07:17:26.199Z,13.80
2018-12-20T07:19:54.541Z,14.07
2018-12-20T07:22:22.910Z,14.07
2018-12-20T07:24:51.235Z,14.23
2018-12-20T07:27:19.669Z,12.65
2018-12-20T07:29:48.013Z,13.53
2018-12-20T07:32:24.804Z,16.07
2018-12-20T07:34:48.002Z,10.23
2018-12-20T07:37:16.529Z,11.28
2018-12-20T07:39:44.931Z,12.33
2018-12-20T07:42:13.546Z,12.82
2018-12-20T07:44:42.061Z,13.40
2018-12-20T07:47:11.219Z,12.43
2018-12-20T07:49:39.601Z,13.55
2018-12-20T07:52:07.917Z,11.97
2018-12-20T07:54:36.270Z,13.35
2018-12-20T07:57:04.612Z,15.23
2018-12-20T07:59:33.003Z,11.45
2018-12-20T08:02:01.364Z,12.25
2018-12-20T08:04:30.399Z,14.68
2018-12-20T08:06:58.704Z,11.93
2018-12-20T08:09:27.124Z,15.43
2018-12-20T08:11:55.463Z,12.20
2018-12-20T08:14:23.817Z,11.33
2018-12-20T08:16:52.230Z,14.18
2018-12-20T08:19:20.589Z,13.15
2018-12-20T08:21:48.956Z,10.65
2018-12-20T08:24:17.352Z,9.63
2018-12-20T08:26:45.688Z,10.70
2018-12-20T08:29:14.203Z,15.38
2018-12-20T08:31:42.540Z,9.95
2018-12-20T08:34:10.904Z,8.93
2018-12-20T08:36:39.236Z,12.33
2018-12-20T08:39:08.307Z,10.23
2018-12-20T08:41:36.671Z,10.10
2018-12-20T08:44:05.924Z,9.00
2018-12-20T08:46:34.341Z,9.00
2018-12-20T08:49:02.697Z,8.05
2018-12-20T08:51:31.066Z,10.00
2018-12-20T08:53:59.655Z,9.85
2018-12-20T08:56:28.025Z,10.08
2018-12-20T08:58:56.421Z,8.35
2018-12-20T09:01:24.780Z,9.80
2018-12-20T09:03:53.196Z,8.95
2018-12-20T09:06:22.811Z,8.58
2018-12-20T09:08:51.176Z,9.60
2018-12-20T09:11:20.405Z,7.87
2018-12-20T09:13:48.755Z,9.08
2018-12-20T09:16:19.036Z,6.90
2018-12-20T09:18:47.427Z,6.42
2018-12-20T09:21:15.862Z,6.97
2018-12-20T09:23:44.389Z,6.30
2018-12-20T09:26:12.893Z,5.95
2018-12-20T09:28:41.348Z,8.05
2018-12-20T09:31:09.756Z,6.78
2018-12-20T09:33:38.124Z,5.37
2018-12-20T09:36:06.518Z,6.87
2018-12-20T09:38:34.997Z,12.15
2018-12-20T09:41:03.441Z,8.10
2018-12-20T09:43:32.049Z,6.28
2018-12-20T09:46:00.411Z,6.90
2018-12-20T09:48:28.804Z,6.37
2018-12-20T09:50:57.182Z,6.75
2018-12-20T09:53:25.590Z,5.85
2018-12-20T09:55:54.667Z,41.98
2018-12-20T09:58:23.052Z,7.60
2018-12-20T10:00:51.453Z,7.72
2018-12-20T10:03:19.877Z,8.75
2018-12-20T10:05:48.256Z,14.85
2018-12-20T10:08:16.640Z,10.53
2018-12-20T10:10:45.152Z,9.25
2018-12-20T10:13:13.581Z,14.50
2018-12-20T10:15:42.051Z,7.72
2018-12-20T10:18:10.376Z,5.83
2018-12-20T10:20:38.982Z,5.83
2018-12-20T10:23:07.424Z,14.23
2018-12-20T10:25:35.786Z,7.10
2018-12-20T10:28:04.231Z,6.17
2018-12-20T10:30:32.704Z,4.95
2018-12-20T10:33:01.047Z,7.92
2018-12-20T10:35:29.443Z,6.85
2018-12-20T10:37:57.868Z,7.12
2018-12-20T10:40:26.217Z,9.15
2018-12-20T10:42:54.584Z,23.67
2018-12-20T10:45:23.104Z,10.50
2018-12-20T10:47:51.505Z,50.63
2018-12-20T10:50:19.879Z,5.05
2018-12-20T10:52:48.340Z,43.02
2018-12-20T10:55:16.815Z,26.80
2018-12-20T10:57:45.160Z,6.92
2018-12-20T11:00:13.653Z,4.45
2018-12-20T11:02:47.957Z,4.47
2018-12-20T11:05:25.343Z,8.28
2018-12-20T11:07:55.835Z,7.00
2018-12-20T11:10:26.927Z,4.33
2018-12-20T11:12:55.524Z,7.00
2018-12-20T11:15:23.894Z,5.15
2018-12-20T11:17:52.275Z,6.90
2018-12-20T11:20:20.619Z,7.28
2018-12-20T11:22:49.108Z,6.03
2018-12-20T11:25:17.521Z,7.20
2018-12-20T11:27:45.994Z,7.05
2018-12-20T11:30:14.297Z,6.30
2018-12-20T11:32:46.750Z,9.73
2018-12-20T11:35:15.073Z,9.98
2018-12-20T11:37:43.464Z,5.87
2018-12-20T11:40:11.787Z,8.00
2018-12-20T11:42:40.145Z,5.75
2018-12-20T11:45:08.592Z,6.40
2018-12-20T11:47:37.002Z,5.95
2018-12-20T11:50:05.661Z,10.60
2018-12-20T11:52:42.152Z,5.22
2018-12-20T11:55:04.665Z,5.05
2018-12-20T11:57:33.008Z,9.35
2018-12-20T12:00:01.413Z,5.45
2018-12-20T12:02:29.874Z,5.25
2018-12-20T12:04:58.217Z,9.75
2018-12-20T12:07:26.566Z,10.23
2018-12-20T12:09:54.967Z,16.12
2018-12-20T12:12:23.353Z,7.78
2018-12-20T12:14:51.778Z,4.03
2018-12-20T12:17:20.103Z,6.20
2018-12-20T12:19:48.763Z,3.65
2018-12-20T12:22:17.112Z,5.35
2018-12-20T12:24:45.484Z,2.58
2018-12-20T12:27:13.817Z,3.60
2018-12-20T12:29:42.327Z,5.95
2018-12-20T12:32:10.615Z,5.62
2018-12-20T12:34:38.933Z,8.78
2018-12-20T12:37:07.253Z,5.22
2018-12-20T12:39:35.688Z,2.75
2018-12-20T12:42:04.080Z,2.83
2018-12-20T12:44:32.465Z,4.05
2018-12-20T12:47:00.827Z,7.78
2018-12-20T12:49:29.289Z,6.75
2018-12-20T12:51:57.687Z,4.78
2018-12-20T12:54:26.016Z,4.80
2018-12-20T12:56:54.392Z,3.30
2018-12-20T12:59:22.721Z,9.78
2018-12-20T13:01:51.076Z,5.50
2018-12-20T13:04:19.381Z,9.28
2018-12-20T13:06:47.777Z,4.10
2018-12-20T13:09:16.112Z,6.83
2018-12-20T13:11:44.900Z,10.13
2018-12-20T13:14:13.278Z,10.08
2018-12-20T13:16:41.669Z,4.72
2018-12-20T13:19:10.007Z,3.65
2018-12-20T13:21:38.453Z,3.95
2018-12-20T13:24:06.903Z,5.80
2018-12-20T13:26:35.364Z,6.55
2018-12-20T13:29:03.882Z,3.45
2018-12-20T13:31:32.296Z,4.92
2018-12-20T13:34:00.677Z,4.70
2018-12-20T13:36:29.062Z,6.25
2018-12-20T13:38:57.404Z,7.83
2018-12-20T13:41:25.716Z,3.52
2018-12-20T13:43:54.720Z,4.70
2018-12-20T13:46:23.076Z,4.97
2018-12-20T13:48:51.410Z,5.08
2018-12-20T13:51:19.894Z,4.65
2018-12-20T13:53:48.293Z,6.87
2018-12-20T13:56:16.580Z,3.52
2018-12-20T13:58:44.970Z,2.40
2018-12-20T14:01:13.304Z,4.35
2018-12-20T14:03:41.671Z,18.45
2018-12-20T14:06:10.016Z,16.25
2018-12-20T14:08:38.347Z,25.72
2018-12-20T14:11:06.705Z,24.65
2018-12-20T14:13:35.097Z,15.08
2018-12-20T14:16:05.355Z,9.58
2018-12-20T14:18:33.779Z,5.75
2018-12-20T14:21:02.218Z,5.65
2018-12-20T14:23:30.573Z,4.62
2018-12-20T14:25:59.579Z,2.83
2018-12-20T14:28:27.944Z,9.35
2018-12-20T14:30:56.370Z,2.02
2018-12-20T14:33:24.702Z,14.35
2018-12-20T14:35:53.318Z,5.70
2018-12-20T14:38:21.731Z,4.83
2018-12-20T14:40:50.765Z,17.70
2018-12-20T14:43:19.090Z,5.28
2018-12-20T14:45:47.481Z,5.47
2018-12-20T14:48:21.155Z,8.48
2018-12-20T14:50:49.570Z,6.83
2018-12-20T14:53:17.957Z,3.12
2018-12-20T14:55:46.575Z,9.50
2018-12-20T14:58:15.205Z,6.17
2018-12-20T15:00:43.681Z,2.47
2018-12-20T15:03:12.128Z,2.10
2018-12-20T15:05:41.227Z,3.62
2018-12-20T15:08:09.598Z,4.30
2018-12-20T15:10:37.950Z,6.35
2018-12-20T15:13:06.904Z,2.55
2018-12-20T15:15:35.937Z,2.92
2018-12-20T15:18:04.425Z,3.87
2018-12-20T15:20:40.260Z,2.83
2018-12-20T15:23:03.208Z,4.50
2018-12-20T15:25:31.894Z,2.58
2018-12-20T15:28:00.237Z,5.70
2018-12-20T15:30:28.569Z,8.70
2018-12-20T15:32:57.051Z,4.62
2018-12-20T15:35:25.417Z,5.12
2018-12-20T15:37:53.944Z,9.33
2018-12-20T15:40:22.262Z,3.70
2018-12-20T15:42:50.626Z,4.65
2018-12-20T15:45:18.942Z,3.42
2018-12-20T15:47:47.355Z,3.55
2018-12-20T15:50:15.744Z,4.22
2018-12-20T15:52:44.118Z,5.42
2018-12-20T15:55:12.556Z,2.65
2018-12-20T15:57:40.906Z,2.35
2018-12-20T16:00:10.161Z,3.37
2018-12-20T16:02:38.575Z,2.95
2018-12-20T16:05:07.156Z,4.78
2018-12-20T16:07:35.516Z,4.30
2018-12-20T16:10:04.657Z,4.65
2018-12-20T16:12:33.024Z,2.92
2018-12-20T16:15:01.370Z,7.47
2018-12-20T16:17:29.735Z,2.95
2018-12-20T16:19:58.071Z,4.22
2018-12-20T16:22:26.424Z,3.80
2018-12-20T16:24:54.763Z,2.65
2018-12-20T16:27:23.106Z,3.65
2018-12-20T16:29:51.480Z,3.67
2018-12-20T16:32:19.862Z,3.60
2018-12-20T16:34:48.184Z,3.22
2018-12-20T16:37:16.519Z,5.62
2018-12-20T16:39:44.884Z,5.95
2018-12-20T16:42:13.853Z,4.60
2018-12-20T16:44:42.239Z,2.62
2018-12-20T16:47:10.610Z,3.05
2018-12-20T16:49:38.930Z,5.08
2018-12-20T16:52:07.300Z,4.55
2018-12-20T16:54:35.623Z,4.25
2018-12-20T16:57:04.082Z,3.62
2018-12-20T16:59:32.463Z,5.28
2018-12-20T17:02:00.848Z,4.35
2018-12-20T17:04:29.193Z,5.08
2018-12-20T17:06:57.620Z,5.30
2018-12-20T17:09:25.967Z,5.45
2018-12-20T17:11:54.332Z,5.20
2018-12-20T17:14:22.685Z,4.70
2018-12-20T17:16:51.028Z,4.25
2018-12-20T17:19:22.271Z,6.80
2018-12-20T17:21:49.719Z,6.95
2018-12-20T17:24:18.183Z,4.72
2018-12-20T17:26:46.904Z,6.30
2018-12-20T17:29:15.300Z,3.95
2018-12-20T17:31:43.689Z,5.05
2018-12-20T17:34:12.036Z,5.25
2018-12-20T17:36:40.594Z,4.12
2018-12-20T17:39:09.057Z,4.42
2018-12-20T17:41:37.581Z,4.17
2018-12-20T17:44:06.368Z,3.70
2018-12-20T17:46:34.950Z,3.55
2018-12-20T17:49:03.269Z,4.62
2018-12-20T17:51:31.652Z,4.80
2018-12-20T17:54:00.196Z,3.52
2018-12-20T17:56:28.544Z,8.83
2018-12-20T17:58:56.958Z,5.92
2018-12-20T18:01:25.405Z,3.83
2018-12-20T18:03:53.794Z,3.15
2018-12-20T18:06:22.450Z,2.70
2018-12-20T18:08:50.786Z,7.33
2018-12-20T18:11:19.623Z,4.58
2018-12-20T18:13:47.991Z,3.72
2018-12-20T18:16:16.355Z,4.42
2018-12-20T18:18:44.737Z,3.45
2018-12-20T18:21:13.072Z,3.90
2018-12-20T18:23:41.431Z,4.90
2018-12-20T18:26:09.860Z,4.85
2018-12-20T18:28:38.182Z,3.30
2018-12-20T18:31:06.508Z,3.02
2018-12-20T18:33:34.873Z,4.75
2018-12-20T18:36:03.434Z,3.05
2018-12-20T18:38:31.782Z,3.92
2018-12-20T18:41:00.155Z,5.70
2018-12-20T18:43:28.534Z,6.22
2018-12-20T18:45:56.881Z,5.90
2018-12-20T18:48:29.819Z,3.47
2018-12-20T18:50:58.222Z,5.72
2018-12-20T18:53:26.571Z,3.22
2018-12-20T18:55:54.947Z,4.55
2018-12-20T18:58:23.295Z,6.40
2018-12-20T19:00:51.664Z,3.00
2018-12-20T19:03:20.004Z,5.80
2018-12-20T19:05:48.352Z,7.67
2018-12-20T19:08:16.711Z,2.98
2018-12-20T19:10:45.331Z,5.25
2018-12-20T19:13:13.692Z,5.10
2018-12-20T19:15:42.042Z,5.17
2018-12-20T19:18:10.415Z,8.68
2018-12-20T19:20:38.826Z,6.60
2018-12-20T19:23:07.304Z,5.92
2018-12-20T19:25:35.922Z,9.03
2018-12-20T19:28:04.383Z,3.67
2018-12-20T19:30:32.819Z,5.08
2018-12-20T19:33:01.159Z,6.80
2018-12-20T19:35:29.731Z,7.70
2018-12-20T19:37:58.108Z,3.42
2018-12-20T19:40:26.532Z,5.10
2018-12-20T19:42:54.940Z,7.05
2018-12-20T19:45:23.316Z,7.42
2018-12-20T19:47:51.783Z,3.50
2018-12-20T19:50:21.902Z,4.47
2018-12-20T19:52:50.371Z,6.65
2018-12-20T19:55:18.701Z,5.35
2018-12-20T19:57:47.077Z,6.50
2018-12-20T20:00:16.883Z,7.35
2018-12-20T20:02:45.215Z,7.33
2018-12-20T20:05:13.560Z,8.15
2018-12-20T20:07:41.919Z,4.03
2018-12-20T20:10:11.498Z,4.95
2018-12-20T20:12:39.899Z,3.92
2018-12-20T20:15:16.477Z,5.30
2018-12-20T20:17:43.023Z,4.42
2018-12-20T20:20:14.196Z,4.00
2018-12-20T20:22:42.374Z,7.83
2018-12-20T20:25:10.749Z,5.97
2018-12-20T20:27:39.165Z,4.85
2018-12-20T20:30:10.717Z,5.37
2018-12-20T20:32:39.131Z,4.58
2018-12-20T20:35:07.836Z,6.45
2018-12-20T20:37:36.536Z,2.55
2018-12-20T20:40:07.067Z,7.33
2018-12-20T20:42:35.448Z,4.20
2018-12-20T20:45:04.377Z,5.12
2018-12-20T20:47:32.741Z,3.22
2018-12-20T20:50:01.141Z,4.25
2018-12-20T20:52:29.557Z,3.35
2018-12-20T20:54:57.955Z,2.77
2018-12-20T20:57:26.299Z,2.95
2018-12-20T20:59:54.666Z,3.80
2018-12-20T21:02:23.044Z,2.27
2018-12-20T21:04:51.449Z,3.87
2018-12-20T21:07:19.823Z,6.65
2018-12-20T21:09:52.805Z,2.30
2018-12-20T21:12:23.025Z,8.15
2018-12-20T21:14:52.613Z,3.85
2018-12-20T21:17:21.417Z,5.70
2018-12-20T21:19:50.327Z,4.78
2018-12-20T21:22:18.885Z,3.95
2018-12-20T21:24:47.379Z,6.75
2018-12-20T21:27:15.700Z,4.72
2018-12-20T21:29:44.085Z,4.37
2018-12-20T21:32:12.587Z,7.22
2018-12-20T21:34:40.945Z,4.60
2018-12-20T21:37:09.328Z,5.15
2018-12-20T21:39:37.829Z,5.50
2018-12-20T21:42:06.304Z,6.12
2018-12-20T21:44:34.761Z,2.85
2018-12-20T21:47:03.182Z,8.45
2018-12-20T21:49:31.627Z,8.90
2018-12-20T21:52:01.605Z,3.95
2018-12-20T21:54:30.119Z,4.62
2018-12-20T21:56:58.483Z,4.08
2018-12-20T21:59:26.834Z,5.45
2018-12-20T22:01:55.835Z,2.98
2018-12-20T22:04:24.187Z,5.65
2018-12-20T22:06:52.632Z,5.50
2018-12-20T22:09:20.984Z,4.87
2018-12-20T22:11:49.454Z,3.65
2018-12-20T22:14:17.856Z,5.08
2018-12-20T22:16:46.292Z,4.90
2018-12-20T22:19:14.711Z,3.98
2018-12-20T22:21:43.087Z,5.72
2018-12-20T22:24:11.478Z,9.45
2018-12-20T22:26:40.029Z,5.33
2018-12-20T22:29:08.430Z,4.30
2018-12-20T22:31:36.811Z,3.60
2018-12-20T22:34:05.255Z,4.12
2018-12-20T22:36:33.654Z,8.73
2018-12-20T22:39:02.198Z,5.00
2018-12-20T22:41:30.524Z,6.90
2018-12-20T22:43:59.317Z,3.95
2018-12-20T22:46:27.678Z,4.92
2018-12-20T22:48:56.104Z,7.85
2018-12-20T22:51:24.439Z,3.77
2018-12-20T22:53:52.915Z,4.03
2018-12-20T22:56:21.316Z,6.65
2018-12-20T22:58:49.747Z,8.00
2018-12-20T23:01:18.165Z,5.50
2018-12-20T23:03:46.611Z,5.40
2018-12-20T23:06:15.117Z,5.62
2018-12-20T23:08:43.493Z,4.80
2018-12-20T23:11:11.912Z,3.10
2018-12-20T23:13:40.300Z,6.65
2018-12-20T23:16:08.708Z,4.78
2018-12-20T23:18:37.103Z,6.70
2018-12-20T23:21:05.504Z,4.90
2018-12-20T23:23:33.934Z,5.30
2018-12-20T23:26:02.366Z,5.42
2018-12-20T23:28:31.847Z,7.60
2018-12-20T23:31:00.212Z,5.62
2018-12-20T23:33:28.579Z,4.72
2018-12-20T23:35:57.003Z,4.67
2018-12-20T23:38:25.432Z,4.00
2018-12-20T23:40:53.892Z,4.70
2018-12-20T23:43:22.264Z,7.10
2018-12-20T23:45:50.672Z,2.50
2018-12-20T23:48:19.048Z,4.85
2018-12-20T23:50:47.726Z,8.10
2018-12-20T23:53:16.154Z,4.30
2018-12-20T23:55:44.497Z,5.53
2018-12-20T23:58:12.880Z,4.42
